sensor_id;sensor_type;location;lat;lon;timestamp;P1;durP1;ratioP1;P2;durP2;ratioP2
9500;SDS011;4788;52.438;9.846;2022-07-29T00:00:41;0.40;;;0.40;;
9500;SDS011;4788;52.438;9.846;2022-07-29T00:03:11;0.40;;;0.40;;
9500;SDS011;4788;52.438;9.846;2022-07-29T00:05:40;0.47;;;0.47;;
9500;SDS011;4788;52.438;9.846;2022-07-29T00:08:07;0.30;;;0.30;;
9500;SDS011;4788;52.438;9.846;2022-07-29T00:10:33;0.40;;;0.40;;
9500;SDS011;4788;52.438;9.846;2022-07-29T00:12:59;0.60;;;0.60;;
9500;SDS011;4788;52.438;9.846;2022-07-29T00:15:25;0.50;;;0.50;;
9500;SDS011;4788;52.438;9.846;2022-07-29T00:17:51;0.40;;;0.40;;
9500;SDS011;4788;52.438;9.846;2022-07-29T00:20:17;0.50;;;0.50;;
9500;SDS011;4788;52.438;9.846;2022-07-29T00:22:43;0.50;;;0.50;;
9500;SDS011;4788;52.438;9.846;2022-07-29T00:25:09;0.40;;;0.40;;
9500;SDS011;4788;52.438;9.846;2022-07-29T00:27:35;0.30;;;0.30;;
9500;SDS011;4788;52.438;9.846;2022-07-29T00:30:02;0.50;;;0.50;;
9500;SDS011;4788;52.438;9.846;2022-07-29T00:32:29;0.50;;;0.50;;
9500;SDS011;4788;52.438;9.846;2022-07-29T00:34:55;0.30;;;0.30;;
9500;SDS011;4788;52.438;9.846;2022-07-29T00:37:53;0.53;;;0.53;;
9500;SDS011;4788;52.438;9.846;2022-07-29T00:40:19;0.40;;;0.40;;
9500;SDS011;4788;52.438;9.846;2022-07-29T00:42:49;0.60;;;0.60;;
9500;SDS011;4788;52.438;9.846;2022-07-29T00:45:15;0.40;;;0.40;;
9500;SDS011;4788;52.438;9.846;2022-07-29T00:47:42;0.40;;;0.40;;
9500;SDS011;4788;52.438;9.846;2022-07-29T00:50:09;0.50;;;0.50;;
9500;SDS011;4788;52.438;9.846;2022-07-29T00:52:36;0.40;;;0.40;;
9500;SDS011;4788;52.438;9.846;2022-07-29T00:55:05;0.50;;;0.50;;
9500;SDS011;4788;52.438;9.846;2022-07-29T00:57:32;0.50;;;0.50;;
9500;SDS011;4788;52.438;9.846;2022-07-29T00:59:58;0.40;;;0.40;;
9500;SDS011;4788;52.438;9.846;2022-07-29T01:02:24;0.50;;;0.50;;
9500;SDS011;4788;52.438;9.846;2022-07-29T01:04:50;0.40;;;0.40;;
9500;SDS011;4788;52.438;9.846;2022-07-29T01:07:16;0.40;;;0.40;;
9500;SDS011;4788;52.438;9.846;2022-07-29T01:09:42;0.50;;;0.50;;
9500;SDS011;4788;52.438;9.846;2022-07-29T01:12:10;0.40;;;0.40;;
9500;SDS011;4788;52.438;9.846;2022-07-29T01:14:36;0.40;;;0.40;;
9500;SDS011;4788;52.438;9.846;2022-07-29T01:17:18;0.50;;;0.50;;
9500;SDS011;4788;52.438;9.846;2022-07-29T01:22:24;0.43;;;0.43;;
9500;SDS011;4788;52.438;9.846;2022-07-29T01:25:05;0.40;;;0.40;;
9500;SDS011;4788;52.438;9.846;2022-07-29T01:30:20;0.40;;;0.40;;
9500;SDS011;4788;52.438;9.846;2022-07-29T01:32:48;0.43;;;0.43;;
9500;SDS011;4788;52.438;9.846;2022-07-29T01:35:20;0.40;;;0.40;;
9500;SDS011;4788;52.438;9.846;2022-07-29T01:40:48;0.40;;;0.40;;
9500;SDS011;4788;52.438;9.846;2022-07-29T01:43:23;0.50;;;0.50;;
9500;SDS011;4788;52.438;9.846;2022-07-29T01:45:53;0.40;;;0.40;;
9500;SDS011;4788;52.438;9.846;2022-07-29T01:48:23;0.53;;;0.53;;
9500;SDS011;4788;52.438;9.846;2022-07-29T01:50:57;0.40;;;0.40;;
9500;SDS011;4788;52.438;9.846;2022-07-29T01:53:28;0.50;;;0.50;;
9500;SDS011;4788;52.438;9.846;2022-07-29T01:55:55;0.40;;;0.40;;
9500;SDS011;4788;52.438;9.846;2022-07-29T01:58:22;0.40;;;0.40;;
9500;SDS011;4788;52.438;9.846;2022-07-29T02:00:49;0.50;;;0.50;;
9500;SDS011;4788;52.438;9.846;2022-07-29T02:03:16;0.40;;;0.40;;
9500;SDS011;4788;52.438;9.846;2022-07-29T02:05:43;0.50;;;0.50;;
9500;SDS011;4788;52.438;9.846;2022-07-29T02:08:11;0.30;;;0.30;;
9500;SDS011;4788;52.438;9.846;2022-07-29T02:10:37;0.50;;;0.50;;
9500;SDS011;4788;52.438;9.846;2022-07-29T02:13:04;0.40;;;0.40;;
9500;SDS011;4788;52.438;9.846;2022-07-29T02:15:33;0.50;;;0.50;;
9500;SDS011;4788;52.438;9.846;2022-07-29T02:18:01;0.40;;;0.40;;
9500;SDS011;4788;52.438;9.846;2022-07-29T02:20:27;0.40;;;0.40;;
9500;SDS011;4788;52.438;9.846;2022-07-29T02:22:54;0.50;;;0.50;;
9500;SDS011;4788;52.438;9.846;2022-07-29T02:25:21;0.50;;;0.50;;
9500;SDS011;4788;52.438;9.846;2022-07-29T02:27:48;0.40;;;0.40;;
9500;SDS011;4788;52.438;9.846;2022-07-29T02:30:15;0.50;;;0.50;;
9500;SDS011;4788;52.438;9.846;2022-07-29T02:32:42;0.50;;;0.50;;
9500;SDS011;4788;52.438;9.846;2022-07-29T02:35:09;0.50;;;0.50;;
9500;SDS011;4788;52.438;9.846;2022-07-29T02:37:36;0.40;;;0.40;;
9500;SDS011;4788;52.438;9.846;2022-07-29T02:40:02;0.40;;;0.40;;
9500;SDS011;4788;52.438;9.846;2022-07-29T02:42:29;0.40;;;0.40;;
9500;SDS011;4788;52.438;9.846;2022-07-29T02:44:56;0.50;;;0.50;;
9500;SDS011;4788;52.438;9.846;2022-07-29T02:47:42;0.40;;;0.40;;
9500;SDS011;4788;52.438;9.846;2022-07-29T02:50:14;0.50;;;0.50;;
9500;SDS011;4788;52.438;9.846;2022-07-29T02:52:44;0.60;;;0.60;;
9500;SDS011;4788;52.438;9.846;2022-07-29T02:55:29;0.50;;;0.50;;
9500;SDS011;4788;52.438;9.846;2022-07-29T02:58:03;0.50;;;0.50;;
9500;SDS011;4788;52.438;9.846;2022-07-29T03:00:31;0.50;;;0.50;;
9500;SDS011;4788;52.438;9.846;2022-07-29T03:03:00;0.40;;;0.40;;
9500;SDS011;4788;52.438;9.846;2022-07-29T03:05:29;0.40;;;0.40;;
9500;SDS011;4788;52.438;9.846;2022-07-29T03:07:57;0.50;;;0.50;;
9500;SDS011;4788;52.438;9.846;2022-07-29T03:10:27;0.50;;;0.50;;
9500;SDS011;4788;52.438;9.846;2022-07-29T03:12:54;0.50;;;0.50;;
9500;SDS011;4788;52.438;9.846;2022-07-29T03:15:21;0.50;;;0.50;;
9500;SDS011;4788;52.438;9.846;2022-07-29T03:17:47;0.50;;;0.50;;
9500;SDS011;4788;52.438;9.846;2022-07-29T03:20:13;0.40;;;0.40;;
9500;SDS011;4788;52.438;9.846;2022-07-29T03:22:40;0.40;;;0.40;;
9500;SDS011;4788;52.438;9.846;2022-07-29T03:25:09;0.47;;;0.47;;
9500;SDS011;4788;52.438;9.846;2022-07-29T03:27:35;0.50;;;0.50;;
9500;SDS011;4788;52.438;9.846;2022-07-29T03:30:01;0.50;;;0.50;;
9500;SDS011;4788;52.438;9.846;2022-07-29T03:32:26;0.50;;;0.50;;
9500;SDS011;4788;52.438;9.846;2022-07-29T03:34:52;0.50;;;0.50;;
9500;SDS011;4788;52.438;9.846;2022-07-29T03:37:18;0.40;;;0.40;;
9500;SDS011;4788;52.438;9.846;2022-07-29T03:39:44;0.50;;;0.50;;
9500;SDS011;4788;52.438;9.846;2022-07-29T03:42:12;0.40;;;0.40;;
9500;SDS011;4788;52.438;9.846;2022-07-29T03:44:39;0.50;;;0.50;;
9500;SDS011;4788;52.438;9.846;2022-07-29T03:47:06;0.50;;;0.50;;
9500;SDS011;4788;52.438;9.846;2022-07-29T03:49:33;0.40;;;0.40;;
9500;SDS011;4788;52.438;9.846;2022-07-29T03:52:00;0.60;;;0.60;;
9500;SDS011;4788;52.438;9.846;2022-07-29T03:54:26;0.50;;;0.50;;
9500;SDS011;4788;52.438;9.846;2022-07-29T03:56:52;0.50;;;0.50;;
9500;SDS011;4788;52.438;9.846;2022-07-29T03:59:19;0.60;;;0.60;;
9500;SDS011;4788;52.438;9.846;2022-07-29T04:01:46;0.50;;;0.50;;
9500;SDS011;4788;52.438;9.846;2022-07-29T04:04:12;0.50;;;0.50;;
9500;SDS011;4788;52.438;9.846;2022-07-29T04:06:39;0.40;;;0.40;;
9500;SDS011;4788;52.438;9.846;2022-07-29T04:09:06;0.60;;;0.60;;
9500;SDS011;4788;52.438;9.846;2022-07-29T04:11:32;0.60;;;0.60;;
9500;SDS011;4788;52.438;9.846;2022-07-29T04:13:58;0.40;;;0.40;;
9500;SDS011;4788;52.438;9.846;2022-07-29T04:16:24;0.50;;;0.50;;
9500;SDS011;4788;52.438;9.846;2022-07-29T04:18:50;0.60;;;0.60;;
9500;SDS011;4788;52.438;9.846;2022-07-29T04:21:16;0.60;;;0.60;;
9500;SDS011;4788;52.438;9.846;2022-07-29T04:23:42;0.50;;;0.50;;
9500;SDS011;4788;52.438;9.846;2022-07-29T04:26:10;0.50;;;0.50;;
9500;SDS011;4788;52.438;9.846;2022-07-29T04:28:36;0.50;;;0.50;;
9500;SDS011;4788;52.438;9.846;2022-07-29T04:31:04;0.40;;;0.40;;
9500;SDS011;4788;52.438;9.846;2022-07-29T04:33:30;0.40;;;0.40;;
9500;SDS011;4788;52.438;9.846;2022-07-29T04:35:56;0.40;;;0.40;;
9500;SDS011;4788;52.438;9.846;2022-07-29T04:38:22;0.50;;;0.50;;
9500;SDS011;4788;52.438;9.846;2022-07-29T04:40:48;0.40;;;0.40;;
9500;SDS011;4788;52.438;9.846;2022-07-29T04:43:14;0.50;;;0.50;;
9500;SDS011;4788;52.438;9.846;2022-07-29T04:45:40;0.40;;;0.40;;
9500;SDS011;4788;52.438;9.846;2022-07-29T04:48:06;0.50;;;0.50;;
9500;SDS011;4788;52.438;9.846;2022-07-29T04:50:32;0.50;;;0.50;;
9500;SDS011;4788;52.438;9.846;2022-07-29T04:52:58;0.40;;;0.40;;
9500;SDS011;4788;52.438;9.846;2022-07-29T04:55:24;0.40;;;0.40;;
9500;SDS011;4788;52.438;9.846;2022-07-29T04:57:51;0.50;;;0.50;;
9500;SDS011;4788;52.438;9.846;2022-07-29T05:00:17;0.40;;;0.40;;
9500;SDS011;4788;52.438;9.846;2022-07-29T05:02:43;0.50;;;0.50;;
9500;SDS011;4788;52.438;9.846;2022-07-29T05:05:08;0.50;;;0.50;;
9500;SDS011;4788;52.438;9.846;2022-07-29T05:07:34;0.50;;;0.50;;
9500;SDS011;4788;52.438;9.846;2022-07-29T05:10:00;0.40;;;0.40;;
9500;SDS011;4788;52.438;9.846;2022-07-29T05:12:26;0.50;;;0.50;;
9500;SDS011;4788;52.438;9.846;2022-07-29T05:14:53;0.50;;;0.50;;
9500;SDS011;4788;52.438;9.846;2022-07-29T05:17:19;0.40;;;0.40;;
9500;SDS011;4788;52.438;9.846;2022-07-29T05:19:45;0.50;;;0.50;;
9500;SDS011;4788;52.438;9.846;2022-07-29T05:22:11;0.40;;;0.40;;
9500;SDS011;4788;52.438;9.846;2022-07-29T05:24:37;0.50;;;0.50;;
9500;SDS011;4788;52.438;9.846;2022-07-29T05:27:03;0.60;;;0.60;;
9500;SDS011;4788;52.438;9.846;2022-07-29T05:29:29;0.50;;;0.50;;
9500;SDS011;4788;52.438;9.846;2022-07-29T05:31:55;0.50;;;0.50;;
9500;SDS011;4788;52.438;9.846;2022-07-29T05:34:21;0.50;;;0.50;;
9500;SDS011;4788;52.438;9.846;2022-07-29T05:36:47;0.50;;;0.50;;
9500;SDS011;4788;52.438;9.846;2022-07-29T05:39:13;0.40;;;0.40;;
9500;SDS011;4788;52.438;9.846;2022-07-29T05:41:39;0.40;;;0.40;;
9500;SDS011;4788;52.438;9.846;2022-07-29T05:44:05;0.40;;;0.40;;
9500;SDS011;4788;52.438;9.846;2022-07-29T05:46:31;0.47;;;0.47;;
9500;SDS011;4788;52.438;9.846;2022-07-29T05:48:57;0.50;;;0.50;;
9500;SDS011;4788;52.438;9.846;2022-07-29T05:51:23;0.50;;;0.50;;
9500;SDS011;4788;52.438;9.846;2022-07-29T05:53:48;0.43;;;0.43;;
9500;SDS011;4788;52.438;9.846;2022-07-29T05:56:14;0.50;;;0.50;;
9500;SDS011;4788;52.438;9.846;2022-07-29T05:58:40;0.40;;;0.40;;
9500;SDS011;4788;52.438;9.846;2022-07-29T06:01:06;0.50;;;0.50;;
9500;SDS011;4788;52.438;9.846;2022-07-29T06:03:32;0.40;;;0.40;;
9500;SDS011;4788;52.438;9.846;2022-07-29T06:05:59;0.50;;;0.50;;
9500;SDS011;4788;52.438;9.846;2022-07-29T06:08:25;0.43;;;0.43;;
9500;SDS011;4788;52.438;9.846;2022-07-29T06:10:51;0.40;;;0.40;;
9500;SDS011;4788;52.438;9.846;2022-07-29T06:13:17;0.40;;;0.40;;
9500;SDS011;4788;52.438;9.846;2022-07-29T06:15:43;0.40;;;0.40;;
9500;SDS011;4788;52.438;9.846;2022-07-29T06:18:09;0.40;;;0.40;;
9500;SDS011;4788;52.438;9.846;2022-07-29T06:20:35;0.50;;;0.50;;
9500;SDS011;4788;52.438;9.846;2022-07-29T06:23:01;0.40;;;0.40;;
9500;SDS011;4788;52.438;9.846;2022-07-29T06:25:29;0.30;;;0.30;;
9500;SDS011;4788;52.438;9.846;2022-07-29T06:27:59;0.40;;;0.40;;
9500;SDS011;4788;52.438;9.846;2022-07-29T06:30:25;0.30;;;0.30;;
9500;SDS011;4788;52.438;9.846;2022-07-29T06:32:54;0.47;;;0.47;;
9500;SDS011;4788;52.438;9.846;2022-07-29T06:35:20;0.40;;;0.40;;
9500;SDS011;4788;52.438;9.846;2022-07-29T06:37:46;0.30;;;0.30;;
9500;SDS011;4788;52.438;9.846;2022-07-29T06:40:12;0.40;;;0.40;;
9500;SDS011;4788;52.438;9.846;2022-07-29T06:42:57;0.30;;;0.30;;
9500;SDS011;4788;52.438;9.846;2022-07-29T06:45:23;0.30;;;0.30;;
9500;SDS011;4788;52.438;9.846;2022-07-29T06:47:49;0.30;;;0.30;;
9500;SDS011;4788;52.438;9.846;2022-07-29T06:50:15;0.30;;;0.30;;
9500;SDS011;4788;52.438;9.846;2022-07-29T06:52:41;0.30;;;0.30;;
9500;SDS011;4788;52.438;9.846;2022-07-29T06:55:07;0.30;;;0.30;;
9500;SDS011;4788;52.438;9.846;2022-07-29T06:57:33;0.30;;;0.30;;
9500;SDS011;4788;52.438;9.846;2022-07-29T06:59:59;0.30;;;0.30;;
9500;SDS011;4788;52.438;9.846;2022-07-29T07:02:25;0.40;;;0.40;;
9500;SDS011;4788;52.438;9.846;2022-07-29T07:04:51;0.30;;;0.30;;
9500;SDS011;4788;52.438;9.846;2022-07-29T07:07:17;0.30;;;0.30;;
9500;SDS011;4788;52.438;9.846;2022-07-29T07:09:43;0.30;;;0.30;;
9500;SDS011;4788;52.438;9.846;2022-07-29T07:12:09;0.33;;;0.33;;
9500;SDS011;4788;52.438;9.846;2022-07-29T07:14:35;0.30;;;0.30;;
9500;SDS011;4788;52.438;9.846;2022-07-29T07:17:01;0.30;;;0.30;;
9500;SDS011;4788;52.438;9.846;2022-07-29T07:19:28;0.30;;;0.30;;
9500;SDS011;4788;52.438;9.846;2022-07-29T07:21:54;0.30;;;0.30;;
9500;SDS011;4788;52.438;9.846;2022-07-29T07:24:20;0.20;;;0.20;;
9500;SDS011;4788;52.438;9.846;2022-07-29T07:26:46;0.30;;;0.30;;
9500;SDS011;4788;52.438;9.846;2022-07-29T07:29:12;0.20;;;0.20;;
9500;SDS011;4788;52.438;9.846;2022-07-29T07:31:38;0.20;;;0.20;;
9500;SDS011;4788;52.438;9.846;2022-07-29T07:34:04;0.20;;;0.20;;
9500;SDS011;4788;52.438;9.846;2022-07-29T07:36:30;0.20;;;0.20;;
9500;SDS011;4788;52.438;9.846;2022-07-29T07:38:56;0.30;;;0.30;;
9500;SDS011;4788;52.438;9.846;2022-07-29T07:41:22;0.30;;;0.30;;
9500;SDS011;4788;52.438;9.846;2022-07-29T07:43:48;0.30;;;0.30;;
9500;SDS011;4788;52.438;9.846;2022-07-29T07:46:14;0.40;;;0.40;;
9500;SDS011;4788;52.438;9.846;2022-07-29T07:48:40;0.30;;;0.30;;
9500;SDS011;4788;52.438;9.846;2022-07-29T07:51:13;0.30;;;0.30;;
9500;SDS011;4788;52.438;9.846;2022-07-29T07:53:39;0.30;;;0.30;;
9500;SDS011;4788;52.438;9.846;2022-07-29T07:56:05;0.30;;;0.30;;
9500;SDS011;4788;52.438;9.846;2022-07-29T07:58:31;0.30;;;0.30;;
9500;SDS011;4788;52.438;9.846;2022-07-29T08:00:57;0.30;;;0.30;;
9500;SDS011;4788;52.438;9.846;2022-07-29T08:03:23;0.30;;;0.30;;
9500;SDS011;4788;52.438;9.846;2022-07-29T08:05:49;0.30;;;0.30;;
9500;SDS011;4788;52.438;9.846;2022-07-29T08:08:16;0.30;;;0.30;;
9500;SDS011;4788;52.438;9.846;2022-07-29T08:10:42;0.30;;;0.30;;
9500;SDS011;4788;52.438;9.846;2022-07-29T08:13:18;0.30;;;0.30;;
9500;SDS011;4788;52.438;9.846;2022-07-29T08:15:44;0.20;;;0.20;;
9500;SDS011;4788;52.438;9.846;2022-07-29T08:18:11;0.30;;;0.30;;
9500;SDS011;4788;52.438;9.846;2022-07-29T08:20:37;0.30;;;0.30;;
9500;SDS011;4788;52.438;9.846;2022-07-29T08:23:04;0.30;;;0.30;;
9500;SDS011;4788;52.438;9.846;2022-07-29T08:25:31;0.20;;;0.20;;
9500;SDS011;4788;52.438;9.846;2022-07-29T08:27:57;0.27;;;0.27;;
9500;SDS011;4788;52.438;9.846;2022-07-29T08:30:23;0.30;;;0.30;;
9500;SDS011;4788;52.438;9.846;2022-07-29T08:32:49;0.30;;;0.30;;
9500;SDS011;4788;52.438;9.846;2022-07-29T08:35:17;0.30;;;0.30;;
9500;SDS011;4788;52.438;9.846;2022-07-29T08:37:43;0.20;;;0.20;;
9500;SDS011;4788;52.438;9.846;2022-07-29T08:40:09;0.30;;;0.30;;
9500;SDS011;4788;52.438;9.846;2022-07-29T08:42:35;0.30;;;0.30;;
9500;SDS011;4788;52.438;9.846;2022-07-29T08:45:02;0.30;;;0.30;;
9500;SDS011;4788;52.438;9.846;2022-07-29T08:47:28;0.30;;;0.30;;
9500;SDS011;4788;52.438;9.846;2022-07-29T08:49:54;0.20;;;0.20;;
9500;SDS011;4788;52.438;9.846;2022-07-29T08:52:20;0.20;;;0.20;;
9500;SDS011;4788;52.438;9.846;2022-07-29T08:54:47;0.30;;;0.30;;
9500;SDS011;4788;52.438;9.846;2022-07-29T08:57:13;0.20;;;0.20;;
9500;SDS011;4788;52.438;9.846;2022-07-29T08:59:40;0.30;;;0.30;;
9500;SDS011;4788;52.438;9.846;2022-07-29T09:02:06;0.20;;;0.20;;
9500;SDS011;4788;52.438;9.846;2022-07-29T09:04:37;0.30;;;0.30;;
9500;SDS011;4788;52.438;9.846;2022-07-29T09:07:04;0.30;;;0.30;;
9500;SDS011;4788;52.438;9.846;2022-07-29T09:09:32;0.20;;;0.20;;
9500;SDS011;4788;52.438;9.846;2022-07-29T09:11:59;0.30;;;0.30;;
9500;SDS011;4788;52.438;9.846;2022-07-29T09:14:25;0.30;;;0.30;;
9500;SDS011;4788;52.438;9.846;2022-07-29T09:16:54;0.30;;;0.30;;
9500;SDS011;4788;52.438;9.846;2022-07-29T09:19:23;0.30;;;0.30;;
9500;SDS011;4788;52.438;9.846;2022-07-29T09:21:49;0.30;;;0.30;;
9500;SDS011;4788;52.438;9.846;2022-07-29T09:24:26;0.30;;;0.30;;
9500;SDS011;4788;52.438;9.846;2022-07-29T09:26:53;0.20;;;0.20;;
9500;SDS011;4788;52.438;9.846;2022-07-29T09:29:20;0.30;;;0.30;;
9500;SDS011;4788;52.438;9.846;2022-07-29T09:31:47;0.20;;;0.20;;
9500;SDS011;4788;52.438;9.846;2022-07-29T09:34:14;0.20;;;0.20;;
9500;SDS011;4788;52.438;9.846;2022-07-29T09:36:44;0.20;;;0.20;;
9500;SDS011;4788;52.438;9.846;2022-07-29T09:39:11;0.20;;;0.20;;
9500;SDS011;4788;52.438;9.846;2022-07-29T09:41:44;0.20;;;0.20;;
9500;SDS011;4788;52.438;9.846;2022-07-29T09:44:10;0.28;;;0.28;;
9500;SDS011;4788;52.438;9.846;2022-07-29T09:46:36;0.10;;;0.10;;
9500;SDS011;4788;52.438;9.846;2022-07-29T09:49:09;0.20;;;0.20;;
9500;SDS011;4788;52.438;9.846;2022-07-29T09:51:35;0.20;;;0.20;;
9500;SDS011;4788;52.438;9.846;2022-07-29T09:54:02;0.20;;;0.20;;
9500;SDS011;4788;52.438;9.846;2022-07-29T09:56:42;0.20;;;0.20;;
9500;SDS011;4788;52.438;9.846;2022-07-29T09:59:08;0.20;;;0.20;;
9500;SDS011;4788;52.438;9.846;2022-07-29T10:01:36;0.10;;;0.10;;
9500;SDS011;4788;52.438;9.846;2022-07-29T10:04:03;0.20;;;0.20;;
9500;SDS011;4788;52.438;9.846;2022-07-29T10:06:29;0.20;;;0.20;;
9500;SDS011;4788;52.438;9.846;2022-07-29T10:09:06;0.30;;;0.30;;
9500;SDS011;4788;52.438;9.846;2022-07-29T10:11:33;0.20;;;0.20;;
9500;SDS011;4788;52.438;9.846;2022-07-29T10:13:59;0.30;;;0.30;;
9500;SDS011;4788;52.438;9.846;2022-07-29T10:16:27;0.13;;;0.13;;
9500;SDS011;4788;52.438;9.846;2022-07-29T10:18:57;0.30;;;0.30;;
9500;SDS011;4788;52.438;9.846;2022-07-29T10:21:23;0.20;;;0.20;;
9500;SDS011;4788;52.438;9.846;2022-07-29T10:23:50;0.30;;;0.30;;
9500;SDS011;4788;52.438;9.846;2022-07-29T10:26:16;0.25;;;0.25;;
9500;SDS011;4788;52.438;9.846;2022-07-29T10:28:43;0.20;;;0.20;;
9500;SDS011;4788;52.438;9.846;2022-07-29T10:31:18;0.20;;;0.20;;
9500;SDS011;4788;52.438;9.846;2022-07-29T10:33:56;0.30;;;0.30;;
9500;SDS011;4788;52.438;9.846;2022-07-29T10:36:38;0.22;;;0.22;;
9500;SDS011;4788;52.438;9.846;2022-07-29T10:41:56;0.20;;;0.20;;
9500;SDS011;4788;52.438;9.846;2022-07-29T10:44:25;0.20;;;0.20;;
9500;SDS011;4788;52.438;9.846;2022-07-29T10:46:52;0.20;;;0.20;;
9500;SDS011;4788;52.438;9.846;2022-07-29T10:49:19;0.20;;;0.20;;
9500;SDS011;4788;52.438;9.846;2022-07-29T10:54:18;0.20;;;0.20;;
9500;SDS011;4788;52.438;9.846;2022-07-29T10:56:44;0.20;;;0.20;;
9500;SDS011;4788;52.438;9.846;2022-07-29T11:01:46;0.20;;;0.20;;
9500;SDS011;4788;52.438;9.846;2022-07-29T11:04:12;0.20;;;0.20;;
9500;SDS011;4788;52.438;9.846;2022-07-29T11:09:22;0.20;;;0.20;;
9500;SDS011;4788;52.438;9.846;2022-07-29T11:11:48;0.15;;;0.15;;
9500;SDS011;4788;52.438;9.846;2022-07-29T11:14:14;0.10;;;0.10;;
9500;SDS011;4788;52.438;9.846;2022-07-29T11:17:01;0.20;;;0.20;;
9500;SDS011;4788;52.438;9.846;2022-07-29T11:19:28;0.20;;;0.20;;
9500;SDS011;4788;52.438;9.846;2022-07-29T11:21:54;0.20;;;0.20;;
9500;SDS011;4788;52.438;9.846;2022-07-29T11:24:28;0.20;;;0.20;;
9500;SDS011;4788;52.438;9.846;2022-07-29T11:29:48;0.10;;;0.10;;
9500;SDS011;4788;52.438;9.846;2022-07-29T11:32:14;0.20;;;0.20;;
9500;SDS011;4788;52.438;9.846;2022-07-29T11:34:42;0.20;;;0.20;;
9500;SDS011;4788;52.438;9.846;2022-07-29T11:47:21;0.20;;;0.20;;
9500;SDS011;4788;52.438;9.846;2022-07-29T11:49:47;0.10;;;0.10;;
9500;SDS011;4788;52.438;9.846;2022-07-29T11:52:15;0.20;;;0.20;;
9500;SDS011;4788;52.438;9.846;2022-07-29T11:54:42;0.20;;;0.20;;
9500;SDS011;4788;52.438;9.846;2022-07-29T11:57:08;0.20;;;0.20;;
9500;SDS011;4788;52.438;9.846;2022-07-29T11:59:38;0.20;;;0.20;;
9500;SDS011;4788;52.438;9.846;2022-07-29T12:02:04;0.20;;;0.20;;
9500;SDS011;4788;52.438;9.846;2022-07-29T12:04:30;0.20;;;0.20;;
9500;SDS011;4788;52.438;9.846;2022-07-29T12:06:56;0.15;;;0.15;;
9500;SDS011;4788;52.438;9.846;2022-07-29T12:09:23;0.10;;;0.10;;
9500;SDS011;4788;52.438;9.846;2022-07-29T12:11:55;0.13;;;0.13;;
9500;SDS011;4788;52.438;9.846;2022-07-29T12:14:31;0.20;;;0.20;;
9500;SDS011;4788;52.438;9.846;2022-07-29T12:16:58;0.17;;;0.17;;
9500;SDS011;4788;52.438;9.846;2022-07-29T12:19:24;0.20;;;0.20;;
9500;SDS011;4788;52.438;9.846;2022-07-29T12:21:51;0.10;;;0.10;;
9500;SDS011;4788;52.438;9.846;2022-07-29T12:24:18;0.13;;;0.13;;
9500;SDS011;4788;52.438;9.846;2022-07-29T12:26:57;0.17;;;0.17;;
9500;SDS011;4788;52.438;9.846;2022-07-29T12:29:23;0.20;;;0.20;;
9500;SDS011;4788;52.438;9.846;2022-07-29T12:31:52;0.10;;;0.10;;
9500;SDS011;4788;52.438;9.846;2022-07-29T12:34:22;0.10;;;0.10;;
9500;SDS011;4788;52.438;9.846;2022-07-29T12:36:49;0.10;;;0.10;;
9500;SDS011;4788;52.438;9.846;2022-07-29T12:39:15;0.10;;;0.10;;
9500;SDS011;4788;52.438;9.846;2022-07-29T12:41:42;0.10;;;0.10;;
9500;SDS011;4788;52.438;9.846;2022-07-29T12:44:09;0.10;;;0.10;;
9500;SDS011;4788;52.438;9.846;2022-07-29T12:46:35;0.10;;;0.10;;
9500;SDS011;4788;52.438;9.846;2022-07-29T12:49:01;0.10;;;0.10;;
9500;SDS011;4788;52.438;9.846;2022-07-29T12:51:37;0.10;;;0.10;;
9500;SDS011;4788;52.438;9.846;2022-07-29T12:54:10;0.15;;;0.15;;
9500;SDS011;4788;52.438;9.846;2022-07-29T12:56:37;0.10;;;0.10;;
9500;SDS011;4788;52.438;9.846;2022-07-29T12:59:13;0.10;;;0.10;;
9500;SDS011;4788;52.438;9.846;2022-07-29T13:01:39;0.20;;;0.20;;
9500;SDS011;4788;52.438;9.846;2022-07-29T13:04:05;0.20;;;0.20;;
9500;SDS011;4788;52.438;9.846;2022-07-29T13:06:36;0.10;;;0.10;;
9500;SDS011;4788;52.438;9.846;2022-07-29T13:09:10;0.10;;;0.10;;
9500;SDS011;4788;52.438;9.846;2022-07-29T13:11:37;0.10;;;0.10;;
9500;SDS011;4788;52.438;9.846;2022-07-29T13:14:04;0.10;;;0.10;;
9500;SDS011;4788;52.438;9.846;2022-07-29T13:16:30;0.10;;;0.10;;
9500;SDS011;4788;52.438;9.846;2022-07-29T13:19:06;0.10;;;0.10;;
9500;SDS011;4788;52.438;9.846;2022-07-29T13:21:33;0.10;;;0.10;;
9500;SDS011;4788;52.438;9.846;2022-07-29T13:23:59;0.10;;;0.10;;
9500;SDS011;4788;52.438;9.846;2022-07-29T13:26:25;0.10;;;0.10;;
9500;SDS011;4788;52.438;9.846;2022-07-29T13:28:51;0.15;;;0.15;;
9500;SDS011;4788;52.438;9.846;2022-07-29T13:31:17;0.10;;;0.10;;
9500;SDS011;4788;52.438;9.846;2022-07-29T13:33:42;0.20;;;0.20;;
9500;SDS011;4788;52.438;9.846;2022-07-29T13:36:08;0.10;;;0.10;;
9500;SDS011;4788;52.438;9.846;2022-07-29T13:38:34;0.10;;;0.10;;
9500;SDS011;4788;52.438;9.846;2022-07-29T13:41:00;0.10;;;0.10;;
9500;SDS011;4788;52.438;9.846;2022-07-29T13:43:26;0.10;;;0.10;;
9500;SDS011;4788;52.438;9.846;2022-07-29T13:45:52;0.10;;;0.10;;
9500;SDS011;4788;52.438;9.846;2022-07-29T13:48:18;0.15;;;0.15;;
9500;SDS011;4788;52.438;9.846;2022-07-29T13:50:44;0.10;;;0.10;;
9500;SDS011;4788;52.438;9.846;2022-07-29T13:53:11;0.10;;;0.10;;
9500;SDS011;4788;52.438;9.846;2022-07-29T13:55:38;0.10;;;0.10;;
9500;SDS011;4788;52.438;9.846;2022-07-29T13:58:04;0.10;;;0.10;;
9500;SDS011;4788;52.438;9.846;2022-07-29T14:00:30;0.10;;;0.10;;
9500;SDS011;4788;52.438;9.846;2022-07-29T14:02:56;0.15;;;0.15;;
9500;SDS011;4788;52.438;9.846;2022-07-29T14:05:22;0.10;;;0.10;;
9500;SDS011;4788;52.438;9.846;2022-07-29T14:07:48;0.10;;;0.10;;
9500;SDS011;4788;52.438;9.846;2022-07-29T14:10:14;0.10;;;0.10;;
9500;SDS011;4788;52.438;9.846;2022-07-29T14:12:40;0.10;;;0.10;;
9500;SDS011;4788;52.438;9.846;2022-07-29T14:15:07;0.10;;;0.10;;
9500;SDS011;4788;52.438;9.846;2022-07-29T14:17:33;0.20;;;0.20;;
9500;SDS011;4788;52.438;9.846;2022-07-29T14:19:59;0.10;;;0.10;;
9500;SDS011;4788;52.438;9.846;2022-07-29T14:22:25;0.10;;;0.10;;
9500;SDS011;4788;52.438;9.846;2022-07-29T14:24:51;0.10;;;0.10;;
9500;SDS011;4788;52.438;9.846;2022-07-29T14:27:17;0.10;;;0.10;;
9500;SDS011;4788;52.438;9.846;2022-07-29T14:29:43;0.10;;;0.10;;
9500;SDS011;4788;52.438;9.846;2022-07-29T14:32:09;0.10;;;0.10;;
9500;SDS011;4788;52.438;9.846;2022-07-29T14:34:36;0.10;;;0.10;;
9500;SDS011;4788;52.438;9.846;2022-07-29T14:37:03;0.10;;;0.10;;
9500;SDS011;4788;52.438;9.846;2022-07-29T14:39:33;0.10;;;0.10;;
9500;SDS011;4788;52.438;9.846;2022-07-29T14:42:01;0.10;;;0.10;;
9500;SDS011;4788;52.438;9.846;2022-07-29T14:44:27;0.10;;;0.10;;
9500;SDS011;4788;52.438;9.846;2022-07-29T14:46:56;0.10;;;0.10;;
9500;SDS011;4788;52.438;9.846;2022-07-29T14:49:23;0.10;;;0.10;;
9500;SDS011;4788;52.438;9.846;2022-07-29T14:51:49;0.10;;;0.10;;
9500;SDS011;4788;52.438;9.846;2022-07-29T14:54:15;0.10;;;0.10;;
9500;SDS011;4788;52.438;9.846;2022-07-29T14:56:41;0.10;;;0.10;;
9500;SDS011;4788;52.438;9.846;2022-07-29T14:59:07;0.10;;;0.10;;
9500;SDS011;4788;52.438;9.846;2022-07-29T15:01:33;0.10;;;0.10;;
9500;SDS011;4788;52.438;9.846;2022-07-29T15:03:59;0.10;;;0.10;;
9500;SDS011;4788;52.438;9.846;2022-07-29T15:06:25;0.10;;;0.10;;
9500;SDS011;4788;52.438;9.846;2022-07-29T15:08:51;0.10;;;0.10;;
9500;SDS011;4788;52.438;9.846;2022-07-29T15:11:17;0.10;;;0.10;;
9500;SDS011;4788;52.438;9.846;2022-07-29T15:13:43;0.10;;;0.10;;
9500;SDS011;4788;52.438;9.846;2022-07-29T15:16:09;0.10;;;0.10;;
9500;SDS011;4788;52.438;9.846;2022-07-29T15:18:35;0.10;;;0.10;;
9500;SDS011;4788;52.438;9.846;2022-07-29T15:21:03;0.10;;;0.10;;
9500;SDS011;4788;52.438;9.846;2022-07-29T15:23:29;0.10;;;0.10;;
9500;SDS011;4788;52.438;9.846;2022-07-29T15:25:55;0.10;;;0.10;;
9500;SDS011;4788;52.438;9.846;2022-07-29T15:28:21;0.10;;;0.10;;
9500;SDS011;4788;52.438;9.846;2022-07-29T15:30:47;0.10;;;0.10;;
9500;SDS011;4788;52.438;9.846;2022-07-29T15:33:13;0.10;;;0.10;;
9500;SDS011;4788;52.438;9.846;2022-07-29T15:35:39;0.10;;;0.10;;
9500;SDS011;4788;52.438;9.846;2022-07-29T15:38:05;0.10;;;0.10;;
9500;SDS011;4788;52.438;9.846;2022-07-29T15:40:31;0.10;;;0.10;;
9500;SDS011;4788;52.438;9.846;2022-07-29T15:42:57;0.10;;;0.10;;
9500;SDS011;4788;52.438;9.846;2022-07-29T15:45:25;0.10;;;0.10;;
9500;SDS011;4788;52.438;9.846;2022-07-29T15:47:52;0.10;;;0.10;;